Time;durP1;ratioP1;P1;durP2;ratioP2;P2;SDS_P1;SDS_P2;PMS_P1;PMS_P2;Temp;Humidity;BMP_temperature;BMP_pressure;BME280_temperature;BME280_humidity;BME280_pressure;Samples;Min_cycle;Max_cycle;Signal;HPM_P1;HPM_P2
2022/10/17 00:00:52;;;;;;;6.32;5.28;;;;;;;;;;5052475;28;20120;-61
2022/10/17 00:03:18;;;;;;;7.53;5.43;;;;;;;;;;5052172;28;20063;-66
2022/10/17 00:05:45;;;;;;;9.65;5.68;;;;;;;;;;5052259;28;20029;-67
2022/10/17 00:08:12;;;;;;;6.63;5.20;;;;;;;;;;5052146;28;20029;-66
2022/10/17 00:10:38;;;;;;;12.70;5.65;;;;;;;;;;5052481;28;20033;-65
2022/10/17 00:13:04;;;;;;;9.00;5.40;;;;;;;;;;5052382;28;20021;-66
2022/10/17 00:15:30;;;;;;;7.47;5.60;;;;;;;;;;5052024;28;20032;-63
2022/10/17 00:17:56;;;;;;;12.35;4.97;;;;;;;;;;5052299;28;20032;-66
2022/10/17 00:20:21;;;;;;;6.68;5.38;;;;;;;;;;5052282;28;20029;-66
2022/10/17 00:22:46;;;;;;;7.93;5.43;;;;;;;;;;5051994;28;20385;-65
2022/10/17 00:25:12;;;;;;;8.85;5.40;;;;;;;;;;5052224;28;20028;-61
2022/10/17 00:27:39;;;;;;;8.20;4.97;;;;;;;;;;5052253;28;20473;-66
2022/10/17 00:30:08;;;;;;;8.05;5.40;;;;;;;;;;5051860;28;20025;-66
2022/10/17 00:32:34;;;;;;;6.40;5.47;;;;;;;;;;5051969;28;20033;-66
2022/10/17 00:34:59;;;;;;;8.02;5.22;;;;;;;;;;5051903;28;20079;-60
2022/10/17 00:37:25;;;;;;;7.60;5.18;;;;;;;;;;5052151;28;20082;-61
2022/10/17 00:39:51;;;;;;;8.55;5.50;;;;;;;;;;5052074;28;20029;-60
2022/10/17 00:42:16;;;;;;;7.43;5.50;;;;;;;;;;5052036;28;20100;-60
2022/10/17 00:44:42;;;;;;;7.72;5.43;;;;;;;;;;5051862;28;20037;-61
2022/10/17 00:47:12;;;;;;;7.40;5.45;;;;;;;;;;5051771;28;20104;-64
2022/10/17 00:49:38;;;;;;;7.40;5.45;;;;;;;;;;5052028;28;20029;-66
2022/10/17 00:52:22;;;;;;;9.43;5.70;;;;;;;;;;5052013;28;20039;-67
2022/10/17 00:54:53;;;;;;;7.53;5.10;;;;;;;;;;5052056;28;20150;-62
2022/10/17 00:57:19;;;;;;;7.03;5.00;;;;;;;;;;5054589;28;20045;-67
2022/10/17 00:59:49;;;;;;;8.05;5.60;;;;;;;;;;5055056;28;20031;-66
2022/10/17 01:02:18;;;;;;;8.80;5.63;;;;;;;;;;5055342;28;20033;-67
2022/10/17 01:04:47;;;;;;;5.85;5.05;;;;;;;;;;5055159;28;20540;-67
2022/10/17 01:07:12;;;;;;;7.82;5.28;;;;;;;;;;5055428;28;20396;-61
2022/10/17 01:09:39;;;;;;;7.45;5.35;;;;;;;;;;5055126;28;20112;-66
2022/10/17 01:12:24;;;;;;;10.38;5.85;;;;;;;;;;5055278;28;20071;-62
2022/10/17 01:15:12;;;;;;;8.43;5.70;;;;;;;;;;5055026;28;20504;-64
2022/10/17 01:18:05;;;;;;;6.93;5.20;;;;;;;;;;5055079;28;20530;-62
2022/10/17 01:20:55;;;;;;;8.30;5.38;;;;;;;;;;5044580;28;20063;-65
2022/10/17 01:23:53;;;;;;;8.25;5.68;;;;;;;;;;5054773;28;20140;-64
2022/10/17 01:26:37;;;;;;;7.65;5.28;;;;;;;;;;5054742;28;20083;-61
2022/10/17 01:29:30;;;;;;;7.43;5.70;;;;;;;;;;5054746;28;20021;-67
2022/10/17 01:32:07;;;;;;;8.10;5.30;;;;;;;;;;5054976;28;20041;-66
2022/10/17 01:34:56;;;;;;;6.93;5.35;;;;;;;;;;5054676;28;20100;-66
2022/10/17 01:37:36;;;;;;;7.13;5.40;;;;;;;;;;5054206;28;20535;-66
2022/10/17 01:40:30;;;;;;;8.35;5.65;;;;;;;;;;5054807;28;20435;-63
2022/10/17 01:43:17;;;;;;;8.52;5.43;;;;;;;;;;5050293;28;20029;-68
2022/10/17 01:45:52;;;;;;;8.15;5.55;;;;;;;;;;5054357;28;20099;-65
2022/10/17 01:48:22;;;;;;;7.55;5.55;;;;;;;;;;5054670;28;20032;-63
2022/10/17 01:50:52;;;;;;;8.68;5.40;;;;;;;;;;5054577;28;20075;-62
2022/10/17 01:53:20;;;;;;;;;;;;;;;;;;5054973;28;20039;-62
2022/10/17 01:55:48;;;;;;;7.22;5.80;;;;;;;;;;5054062;28;19923;-66
2022/10/17 01:58:21;;;;;;;6.70;5.20;;;;;;;;;;5054812;28;20094;-65
2022/10/17 02:00:48;;;;;;;9.73;5.90;;;;;;;;;;5054490;28;20021;-68
2022/10/17 02:03:17;;;;;;;7.65;5.78;;;;;;;;;;5054397;28;20025;-68
2022/10/17 02:05:43;;;;;;;6.50;5.50;;;;;;;;;;5054123;28;20025;-65
2022/10/17 02:08:08;;;;;;;7.45;5.25;;;;;;;;;;5052916;28;20108;-61
2022/10/17 02:10:38;;;;;;;7.97;5.22;;;;;;;;;;5054202;28;20025;-65
2022/10/17 02:13:19;;;;;;;7.53;5.97;;;;;;;;;;5054509;28;20440;-63
2022/10/17 02:16:15;;;;;;;6.82;5.32;;;;;;;;;;5054166;28;20078;-64
2022/10/17 02:19:11;;;;;;;7.25;5.72;;;;;;;;;;5053701;28;20033;-61
2022/10/17 02:21:45;;;;;;;7.80;5.43;;;;;;;;;;5054029;28;20025;-61
2022/10/17 02:24:34;;;;;;;6.15;5.55;;;;;;;;;;5054033;28;20139;-62
2022/10/17 02:27:10;;;;;;;6.95;5.90;;;;;;;;;;5053939;28;20095;-66
2022/10/17 02:29:47;;;;;;;8.80;5.20;;;;;;;;;;5053703;28;20028;-66
2022/10/17 02:32:20;;;;;;;12.05;5.47;;;;;;;;;;5053600;28;20476;-67
2022/10/17 02:34:51;;;;;;;7.90;5.85;;;;;;;;;;5053763;28;20051;-61
2022/10/17 02:37:21;;;;;;;10.02;5.80;;;;;;;;;;5053425;28;20029;-61
2022/10/17 02:39:49;;;;;;;7.95;5.25;;;;;;;;;;5053626;28;20041;-62
2022/10/17 02:42:16;;;;;;;7.38;5.63;;;;;;;;;;5053282;28;20035;-62
2022/10/17 02:44:43;;;;;;;7.55;5.97;;;;;;;;;;5053270;28;20037;-65
2022/10/17 02:47:20;;;;;;;8.15;5.78;;;;;;;;;;5053227;28;20504;-62
2022/10/17 02:49:55;;;;;;;7.95;5.80;;;;;;;;;;5053190;28;20094;-67
2022/10/17 02:52:37;;;;;;;9.57;7.00;;;;;;;;;;5053414;28;20025;-61
2022/10/17 02:55:06;;;;;;;7.55;5.57;;;;;;;;;;5053433;28;20044;-61
2022/10/17 02:57:39;;;;;;;10.18;6.30;;;;;;;;;;5052832;28;20057;-61
2022/10/17 03:00:08;;;;;;;9.85;5.78;;;;;;;;;;5053147;28;20500;-67
2022/10/17 03:02:44;;;;;;;7.90;5.85;;;;;;;;;;5052974;28;20074;-66
2022/10/17 03:05:12;;;;;;;7.60;5.68;;;;;;;;;;5052890;28;20473;-66
2022/10/17 03:07:38;;;;;;;9.00;5.95;;;;;;;;;;5052958;28;20108;-67
2022/10/17 03:10:04;;;;;;;7.05;5.65;;;;;;;;;;5053069;28;20104;-66
2022/10/17 03:12:29;;;;;;;9.30;6.00;;;;;;;;;;5053028;28;20122;-66
2022/10/17 03:14:55;;;;;;;7.30;5.90;;;;;;;;;;5053033;28;20453;-65
2022/10/17 03:17:20;;;;;;;9.00;6.10;;;;;;;;;;5052952;28;20507;-66
2022/10/17 03:19:46;;;;;;;8.55;6.30;;;;;;;;;;5052626;28;20037;-61
2022/10/17 03:22:11;;;;;;;8.98;6.30;;;;;;;;;;5052675;28;20039;-62
2022/10/17 03:24:36;;;;;;;8.32;5.75;;;;;;;;;;5052879;28;20079;-61
2022/10/17 03:27:02;;;;;;;10.00;6.22;;;;;;;;;;5052631;28;20021;-61
2022/10/17 03:29:27;;;;;;;9.48;6.72;;;;;;;;;;5052518;28;20079;-61
2022/10/17 03:31:53;;;;;;;8.18;6.50;;;;;;;;;;5052823;28;20025;-61
2022/10/17 03:34:18;;;;;;;8.00;6.32;;;;;;;;;;5052816;28;20098;-61
2022/10/17 03:36:44;;;;;;;7.28;5.88;;;;;;;;;;5053010;28;20029;-66
2022/10/17 03:39:10;;;;;;;7.70;6.03;;;;;;;;;;5052709;28;20036;-61
2022/10/17 03:41:35;;;;;;;8.90;6.25;;;;;;;;;;5052413;28;20487;-66
2022/10/17 03:44:01;;;;;;;9.55;6.43;;;;;;;;;;5052396;28;20079;-66
2022/10/17 03:46:26;;;;;;;8.20;6.13;;;;;;;;;;5052651;28;20025;-67
2022/10/17 03:48:52;;;;;;;7.40;6.00;;;;;;;;;;5052614;28;20108;-66
2022/10/17 03:51:17;;;;;;;8.65;6.45;;;;;;;;;;5052603;28;20021;-64
2022/10/17 03:53:43;;;;;;;10.65;6.50;;;;;;;;;;5052651;28;20029;-66
2022/10/17 03:56:17;;;;;;;10.52;6.72;;;;;;;;;;5051926;28;20053;-65
2022/10/17 03:58:43;;;;;;;8.88;6.20;;;;;;;;;;5052483;28;20419;-61
2022/10/17 04:01:10;;;;;;;9.30;6.65;;;;;;;;;;5052520;28;20020;-65
2022/10/17 04:03:36;;;;;;;9.98;6.50;;;;;;;;;;5052444;28;20112;-61
2022/10/17 04:06:03;;;;;;;9.38;6.55;;;;;;;;;;5052483;28;20482;-67
2022/10/17 04:08:29;;;;;;;7.82;6.25;;;;;;;;;;5052409;28;20036;-67
2022/10/17 04:10:59;;;;;;;7.88;6.28;;;;;;;;;;5052385;28;20025;-67
2022/10/17 04:13:24;;;;;;;6.90;6.13;;;;;;;;;;5052421;28;20030;-61
2022/10/17 04:15:58;;;;;;;9.48;6.50;;;;;;;;;;5051983;28;20250;-61
2022/10/17 04:18:23;;;;;;;8.05;6.53;;;;;;;;;;5052073;28;20040;-61
2022/10/17 04:20:49;;;;;;;7.78;6.20;;;;;;;;;;5051985;28;20358;-66
2022/10/17 04:23:14;;;;;;;7.82;6.40;;;;;;;;;;5052259;28;20060;-61
2022/10/17 04:25:39;;;;;;;7.13;6.13;;;;;;;;;;5051960;28;20385;-65
2022/10/17 04:28:05;;;;;;;7.30;6.00;;;;;;;;;;5051907;28;20094;-62
2022/10/17 04:30:30;;;;;;;7.95;6.40;;;;;;;;;;5052489;28;20036;-61
2022/10/17 04:32:56;;;;;;;9.38;6.45;;;;;;;;;;5055714;28;20017;-67
2022/10/17 04:35:21;;;;;;;8.90;6.75;;;;;;;;;;5055967;28;20021;-67
2022/10/17 04:37:46;;;;;;;9.30;6.30;;;;;;;;;;5055584;28;20078;-67
2022/10/17 04:40:12;;;;;;;8.30;6.55;;;;;;;;;;5055735;28;20040;-61
2022/10/17 04:42:37;;;;;;;8.18;6.15;;;;;;;;;;5055509;28;20017;-64
2022/10/17 04:45:03;;;;;;;8.52;6.40;;;;;;;;;;5055926;28;20029;-61
2022/10/17 04:47:29;;;;;;;9.50;6.05;;;;;;;;;;5055470;28;20103;-61
2022/10/17 04:49:54;;;;;;;9.05;7.00;;;;;;;;;;5055417;28;20167;-67
2022/10/17 04:52:20;;;;;;;8.60;6.70;;;;;;;;;;5055717;28;20166;-61
2022/10/17 04:54:45;;;;;;;8.05;6.30;;;;;;;;;;5055674;28;20025;-64
2022/10/17 04:57:11;;;;;;;8.13;6.38;;;;;;;;;;5055315;28;20084;-62
2022/10/17 04:59:36;;;;;;;9.25;6.40;;;;;;;;;;5055289;28;20118;-62
2022/10/17 05:02:02;;;;;;;9.13;6.10;;;;;;;;;;5055215;28;20032;-66
2022/10/17 05:04:27;;;;;;;10.40;7.10;;;;;;;;;;5055549;28;20028;-67
2022/10/17 05:06:54;;;;;;;10.07;6.85;;;;;;;;;;5055106;28;20025;-64
2022/10/17 05:09:19;;;;;;;7.05;6.20;;;;;;;;;;5055001;28;20481;-65
2022/10/17 05:11:44;;;;;;;10.15;6.70;;;;;;;;;;5055279;28;20036;-66
2022/10/17 05:14:10;;;;;;;7.80;6.35;;;;;;;;;;5055273;28;20028;-67
2022/10/17 05:16:35;;;;;;;8.45;6.72;;;;;;;;;;5055142;28;20479;-65
2022/10/17 05:19:01;;;;;;;10.90;6.75;;;;;;;;;;5054820;28;20036;-65
2022/10/17 05:21:28;;;;;;;7.43;6.25;;;;;;;;;;5055090;28;20075;-64
2022/10/17 05:23:54;;;;;;;9.50;6.47;;;;;;;;;;5055091;28;20029;-64
2022/10/17 05:26:20;;;;;;;9.43;6.70;;;;;;;;;;5055018;28;20461;-62
2022/10/17 05:28:46;;;;;;;8.10;6.18;;;;;;;;;;5054906;28;20114;-63
2022/10/17 05:31:12;;;;;;;11.02;6.32;;;;;;;;;;5054955;28;20488;-66
2022/10/17 05:33:38;;;;;;;8.85;6.35;;;;;;;;;;5054703;28;20607;-63
2022/10/17 05:36:05;;;;;;;8.30;6.00;;;;;;;;;;5054874;28;20087;-66
2022/10/17 05:38:30;;;;;;;9.55;6.53;;;;;;;;;;5054530;28;20025;-65
2022/10/17 05:41:00;;;;;;;9.82;6.35;;;;;;;;;;5054560;28;20036;-63
2022/10/17 05:43:26;;;;;;;8.35;6.28;;;;;;;;;;5054621;28;20024;-67
2022/10/17 05:45:52;;;;;;;7.43;6.38;;;;;;;;;;5054461;28;20112;-63
2022/10/17 05:48:18;;;;;;;10.73;6.20;;;;;;;;;;5054649;28;20442;-63
2022/10/17 05:50:43;;;;;;;9.35;6.53;;;;;;;;;;5054636;28;20049;-62
2022/10/17 05:53:09;;;;;;;8.93;6.82;;;;;;;;;;5054324;28;20044;-64
2022/10/17 05:55:34;;;;;;;8.73;6.57;;;;;;;;;;5054564;28;20461;-61
2022/10/17 05:58:00;;;;;;;9.18;6.80;;;;;;;;;;5053932;28;20080;-62
2022/10/17 06:00:26;;;;;;;8.52;7.03;;;;;;;;;;5054219;28;20446;-63
2022/10/17 06:02:51;;;;;;;9.18;6.85;;;;;;;;;;5054263;28;20029;-61
2022/10/17 06:05:17;;;;;;;9.63;6.95;;;;;;;;;;5053962;28;20484;-64
2022/10/17 06:07:43;;;;;;;9.25;7.07;;;;;;;;;;5054170;28;20029;-63
2022/10/17 06:10:11;;;;;;;12.68;7.45;;;;;;;;;;5053973;28;20430;-62
2022/10/17 06:12:37;;;;;;;12.10;7.55;;;;;;;;;;5054159;28;20029;-62
2022/10/17 06:15:03;;;;;;;15.05;7.18;;;;;;;;;;5052585;28;20461;-64
2022/10/17 06:17:29;;;;;;;10.35;7.30;;;;;;;;;;5053739;28;20517;-66
2022/10/17 06:19:55;;;;;;;11.07;6.88;;;;;;;;;;5052744;28;20063;-67
2022/10/17 06:22:20;;;;;;;10.88;7.60;;;;;;;;;;5053636;28;20028;-64
2022/10/17 06:24:45;;;;;;;9.13;6.82;;;;;;;;;;5053918;28;20025;-66
2022/10/17 06:27:11;;;;;;;11.45;7.70;;;;;;;;;;5053837;28;20348;-63
2022/10/17 06:29:36;;;;;;;10.15;7.78;;;;;;;;;;5053829;28;20025;-62
2022/10/17 06:32:02;;;;;;;12.60;7.78;;;;;;;;;;5053455;28;20134;-62
2022/10/17 06:34:28;;;;;;;13.27;8.30;;;;;;;;;;5053706;28;20025;-62
2022/10/17 06:36:53;;;;;;;13.15;7.60;;;;;;;;;;5053779;28;20202;-65
2022/10/17 06:39:19;;;;;;;12.23;7.68;;;;;;;;;;5053580;28;20120;-62
2022/10/17 06:41:44;;;;;;;12.23;8.15;;;;;;;;;;5053455;28;20017;-68
2022/10/17 06:44:10;;;;;;;12.55;7.68;;;;;;;;;;5053440;28;20469;-63
2022/10/17 06:46:39;;;;;;;16.20;7.60;;;;;;;;;;5052182;28;20498;-63
2022/10/17 06:49:05;;;;;;;12.60;7.90;;;;;;;;;;5053326;28;20029;-66
2022/10/17 06:51:34;;;;;;;13.57;7.82;;;;;;;;;;5053382;28;20024;-66
2022/10/17 06:54:00;;;;;;;9.95;8.02;;;;;;;;;;5052468;28;20416;-63
2022/10/17 06:56:25;;;;;;;11.40;7.85;;;;;;;;;;5052964;28;20107;-67
2022/10/17 06:58:51;;;;;;;12.75;7.55;;;;;;;;;;5053115;28;20487;-62
2022/10/17 07:01:17;;;;;;;10.48;7.95;;;;;;;;;;5053167;28;20029;-62
2022/10/17 07:03:42;;;;;;;13.05;8.15;;;;;;;;;;5052814;28;20377;-63
2022/10/17 07:06:10;;;;;;;11.40;8.05;;;;;;;;;;5052820;28;20025;-63
2022/10/17 07:08:36;;;;;;;18.48;8.05;;;;;;;;;;5053124;28;20068;-64
2022/10/17 07:11:12;;;;;;;10.38;7.28;;;;;;;;;;5053037;28;20037;-66
2022/10/17 07:13:37;;;;;;;10.07;7.75;;;;;;;;;;5053017;28;20055;-61
2022/10/17 07:16:03;;;;;;;11.27;7.35;;;;;;;;;;5053011;28;20434;-62
2022/10/17 07:18:28;;;;;;;13.00;7.72;;;;;;;;;;5052823;28;20021;-66
2022/10/17 07:20:54;;;;;;;12.43;7.50;;;;;;;;;;5052475;28;20028;-63
2022/10/17 07:23:20;;;;;;;15.32;7.70;;;;;;;;;;5052929;28;20116;-68
2022/10/17 07:25:45;;;;;;;10.68;7.80;;;;;;;;;;5052470;28;20386;-64
2022/10/17 07:28:11;;;;;;;8.73;6.95;;;;;;;;;;5052494;28;20060;-64
2022/10/17 07:30:36;;;;;;;17.13;7.68;;;;;;;;;;5052340;28;20021;-68
2022/10/17 07:33:01;;;;;;;11.63;7.35;;;;;;;;;;5052714;28;20033;-66
2022/10/17 07:35:27;;;;;;;13.23;7.55;;;;;;;;;;5052470;28;20381;-65
2022/10/17 07:37:52;;;;;;;11.15;7.22;;;;;;;;;;5052333;28;20346;-68
2022/10/17 07:40:17;;;;;;;11.60;6.97;;;;;;;;;;5052292;28;20021;-62
2022/10/17 07:42:43;;;;;;;11.23;7.28;;;;;;;;;;5052612;28;20037;-62
2022/10/17 07:45:08;;;;;;;9.52;7.45;;;;;;;;;;5052562;28;20358;-65
2022/10/17 07:47:34;;;;;;;12.20;7.63;;;;;;;;;;5051251;28;20079;-68
2022/10/17 07:50:01;;;;;;;10.00;7.53;;;;;;;;;;5044476;28;20503;-64
2022/10/17 07:52:26;;;;;;;10.55;7.07;;;;;;;;;;5046823;28;20020;-63
2022/10/17 07:54:52;;;;;;;15.20;7.43;;;;;;;;;;5047729;28;20354;-68
2022/10/17 07:57:17;;;;;;;9.02;7.15;;;;;;;;;;5047481;28;20045;-65
2022/10/17 07:59:42;;;;;;;12.45;7.35;;;;;;;;;;5047672;28;20029;-63
2022/10/17 08:02:21;;;;;;;9.50;6.95;;;;;;;;;;5049582;28;20452;-67
2022/10/17 08:04:46;;;;;;;11.07;7.10;;;;;;;;;;5052280;28;20017;-69
2022/10/17 08:07:12;;;;;;;13.23;7.40;;;;;;;;;;5055068;28;20021;-61
2022/10/17 08:09:37;;;;;;;11.77;7.10;;;;;;;;;;5050509;28;20032;-66
2022/10/17 08:12:03;;;;;;;8.45;6.78;;;;;;;;;;5055187;28;20434;-63
2022/10/17 08:14:28;;;;;;;10.75;7.07;;;;;;;;;;5052733;28;20037;-63
2022/10/17 08:16:54;;;;;;;9.00;6.90;;;;;;;;;;5054797;28;20070;-62
2022/10/17 08:19:19;;;;;;;13.52;7.43;;;;;;;;;;5055054;28;20473;-63
2022/10/17 08:21:45;;;;;;;9.75;7.03;;;;;;;;;;5053283;28;20036;-62
2022/10/17 08:24:11;;;;;;;16.83;7.43;;;;;;;;;;5044945;28;20126;-60
2022/10/17 08:26:36;;;;;;;9.00;6.70;;;;;;;;;;5052999;28;20107;-61
2022/10/17 08:29:02;;;;;;;10.93;6.90;;;;;;;;;;5053358;28;20418;-66
2022/10/17 08:31:28;;;;;;;12.85;6.75;;;;;;;;;;5053046;28;20487;-65
2022/10/17 08:33:53;;;;;;;8.25;6.68;;;;;;;;;;5052150;28;20068;-66
2022/10/17 08:36:19;;;;;;;8.50;6.75;;;;;;;;;;5053940;28;20500;-66
2022/10/17 08:38:45;;;;;;;14.50;6.80;;;;;;;;;;5053996;28;20072;-64
2022/10/17 08:41:19;;;;;;;8.18;6.38;;;;;;;;;;5052210;28;20064;-64
2022/10/17 08:44:04;;;;;;;11.65;6.90;;;;;;;;;;5049128;28;20033;-68
2022/10/17 08:46:34;;;;;;;9.23;6.30;;;;;;;;;;5053252;28;20025;-63
2022/10/17 08:49:02;;;;;;;10.18;6.25;;;;;;;;;;5050166;28;20098;-69
2022/10/17 08:51:33;;;;;;;7.70;5.85;;;;;;;;;;5053707;28;20114;-65
2022/10/17 08:54:07;;;;;;;9.85;6.55;;;;;;;;;;5051675;28;20017;-67
2022/10/17 08:56:48;;;;;;;10.75;6.35;;;;;;;;;;5051146;28;20033;-64
2022/10/17 08:59:32;;;;;;;13.32;6.53;;;;;;;;;;5051095;28;20420;-65
2022/10/17 09:02:25;;;;;;;11.70;6.47;;;;;;;;;;5049622;28;20082;-65
2022/10/17 09:04:50;;;;;;;11.25;5.60;;;;;;;;;;5047772;28;20040;-65
2022/10/17 09:07:31;;;;;;;14.32;5.90;;;;;;;;;;5053216;28;20021;-64
2022/10/17 09:10:24;;;;;;;10.02;6.05;;;;;;;;;;5053209;28;20017;-64
2022/10/17 09:13:17;;;;;;;9.70;6.00;;;;;;;;;;5052298;28;20554;-65
2022/10/17 09:16:01;;;;;;;9.43;5.95;;;;;;;;;;5051395;28;20086;-65
2022/10/17 09:18:31;;;;;;;8.95;5.53;;;;;;;;;;5047362;28;20354;-69
2022/10/17 09:21:22;;;;;;;8.75;5.57;;;;;;;;;;5048681;28;20037;-70
2022/10/17 09:23:54;;;;;;;14.80;6.55;;;;;;;;;;5045401;28;20087;-64
2022/10/17 09:26:21;;;;;;;14.10;5.97;;;;;;;;;;5041278;28;20044;-69
2022/10/17 09:28:52;;;;;;;9.48;6.03;;;;;;;;;;5035592;28;20037;-69
2022/10/17 09:31:22;;;;;;;10.57;5.32;;;;;;;;;;5040109;28;20037;-63
2022/10/17 09:33:51;;;;;;;13.85;5.90;;;;;;;;;;5044737;28;20029;-66
2022/10/17 09:36:19;;;;;;;9.30;5.72;;;;;;;;;;5047736;28;20017;-67
2022/10/17 09:38:55;;;;;;;13.23;5.85;;;;;;;;;;5035329;28;20021;-71
2022/10/17 09:41:25;;;;;;;10.02;5.80;;;;;;;;;;5050537;28;20102;-73
2022/10/17 09:43:58;;;;;;;10.98;5.40;;;;;;;;;;5052840;28;20129;-69
2022/10/17 09:46:31;;;;;;;6.75;5.30;;;;;;;;;;5052405;28;20036;-69
2022/10/17 09:49:05;;;;;;;12.27;5.20;;;;;;;;;;5054056;28;20048;-63
2022/10/17 09:51:31;;;;;;;10.48;5.65;;;;;;;;;;5052591;28;20055;-62
2022/10/17 09:54:02;;;;;;;9.05;4.88;;;;;;;;;;5051245;28;20025;-72
2022/10/17 09:56:27;;;;;;;7.85;5.43;;;;;;;;;;5047078;28;20413;-66
2022/10/17 09:58:56;;;;;;;9.63;5.03;;;;;;;;;;5048498;28;20029;-64
2022/10/17 10:01:27;;;;;;;12.15;5.63;;;;;;;;;;5049136;28;20025;-63
2022/10/17 10:04:11;;;;;;;8.05;5.25;;;;;;;;;;5049441;28;20048;-63
2022/10/17 10:06:38;;;;;;;7.90;4.60;;;;;;;;;;5051968;28;20036;-65
2022/10/17 10:09:05;;;;;;;6.93;5.35;;;;;;;;;;5046822;28;20028;-67
2022/10/17 10:11:54;;;;;;;12.65;5.32;;;;;;;;;;5051145;28;20039;-65
2022/10/17 10:14:22;;;;;;;12.98;5.45;;;;;;;;;;5050451;28;20134;-62
2022/10/17 10:16:48;;;;;;;8.38;4.93;;;;;;;;;;5051289;28;20021;-70
2022/10/17 10:19:36;;;;;;;9.40;4.80;;;;;;;;;;5052081;28;20029;-64
2022/10/17 10:22:04;;;;;;;7.53;4.50;;;;;;;;;;5047932;28;20029;-68
2022/10/17 10:24:30;;;;;;;16.95;5.43;;;;;;;;;;5052051;28;20028;-64
2022/10/17 10:27:00;;;;;;;7.53;5.35;;;;;;;;;;5050179;28;20141;-62
2022/10/17 10:29:27;;;;;;;9.40;5.00;;;;;;;;;;5045298;28;20040;-65
2022/10/17 10:31:54;;;;;;;9.43;5.20;;;;;;;;;;5050494;28;20541;-69
2022/10/17 10:34:28;;;;;;;7.97;5.07;;;;;;;;;;5048807;28;20151;-65
2022/10/17 10:37:01;;;;;;;10.10;5.05;;;;;;;;;;5049062;28;20024;-69
2022/10/17 10:39:38;;;;;;;10.02;5.35;;;;;;;;;;5051377;28;20056;-63
2022/10/17 10:42:16;;;;;;;7.88;4.75;;;;;;;;;;5051448;28;20032;-70
2022/10/17 10:44:41;;;;;;;7.28;4.90;;;;;;;;;;5046583;28;20385;-72
2022/10/17 10:47:14;;;;;;;7.50;5.13;;;;;;;;;;5031163;28;20029;-61
2022/10/17 10:49:40;;;;;;;9.68;4.82;;;;;;;;;;5031396;28;20037;-63
2022/10/17 10:52:07;;;;;;;8.18;4.95;;;;;;;;;;5031942;28;20397;-63
2022/10/17 10:54:41;;;;;;;6.93;5.43;;;;;;;;;;5031914;28;20040;-62
2022/10/17 10:57:12;;;;;;;12.82;4.93;;;;;;;;;;5031592;28;20077;-65
2022/10/17 11:00:11;;;;;;;7.28;5.05;;;;;;;;;;5031777;28;20112;-64
2022/10/17 11:02:52;;;;;;;9.03;5.00;;;;;;;;;;5031699;28;20037;-61
2022/10/17 11:05:41;;;;;;;10.98;4.68;;;;;;;;;;5049259;28;20357;-69
2022/10/17 11:08:10;;;;;;;7.35;4.47;;;;;;;;;;5049925;28;20104;-69
2022/10/17 11:10:55;;;;;;;13.40;4.85;;;;;;;;;;5049887;28;20025;-69
2022/10/17 11:13:25;;;;;;;6.57;4.10;;;;;;;;;;5050928;28;20017;-69
2022/10/17 11:15:58;;;;;;;6.80;4.10;;;;;;;;;;5051448;28;20087;-62
2022/10/17 11:18:43;;;;;;;6.15;4.38;;;;;;;;;;5051623;28;20029;-65
2022/10/17 11:21:12;;;;;;;6.95;4.50;;;;;;;;;;5051371;28;20033;-66
2022/10/17 11:23:55;;;;;;;5.60;4.18;;;;;;;;;;5050930;28;20111;-66
2022/10/17 11:26:30;;;;;;;6.72;4.07;;;;;;;;;;5050877;28;20056;-70
2022/10/17 11:28:57;;;;;;;5.95;4.60;;;;;;;;;;5051563;28;20091;-62
2022/10/17 11:31:28;;;;;;;6.35;4.28;;;;;;;;;;5049958;28;20021;-69
2022/10/17 11:33:58;;;;;;;6.45;4.57;;;;;;;;;;5033565;28;20083;-63
2022/10/17 11:36:33;;;;;;;5.07;3.72;;;;;;;;;;5049779;28;20370;-66
2022/10/17 11:39:05;;;;;;;10.88;4.38;;;;;;;;;;5049444;28;20063;-62
2022/10/17 11:41:41;;;;;;;10.00;4.25;;;;;;;;;;5050837;28;20033;-63
2022/10/17 11:44:22;;;;;;;5.00;4.10;;;;;;;;;;5051016;28;20037;-63
2022/10/17 11:46:55;;;;;;;5.30;3.65;;;;;;;;;;5051368;28;20061;-72
2022/10/17 11:49:33;;;;;;;8.45;4.30;;;;;;;;;;5051254;28;20119;-63
2022/10/17 11:52:17;;;;;;;6.25;3.78;;;;;;;;;;5050840;28;20469;-71
2022/10/17 11:54:51;;;;;;;10.18;4.43;;;;;;;;;;5050993;28;20032;-71
2022/10/17 11:57:45;;;;;;;6.80;4.10;;;;;;;;;;5050525;28;20405;-64
2022/10/17 12:00:27;;;;;;;6.25;4.05;;;;;;;;;;5050681;28;20484;-68
2022/10/17 12:03:33;;;;;;;5.38;3.78;;;;;;;;;;5049319;28;20036;-61
2022/10/17 12:06:15;;;;;;;4.45;4.03;;;;;;;;;;5043944;28;20033;-66
2022/10/17 12:09:03;;;;;;;4.43;3.90;;;;;;;;;;5050749;28;20056;-67
2022/10/17 12:11:40;;;;;;;6.28;3.80;;;;;;;;;;5050607;28;20079;-62
2022/10/17 12:14:39;;;;;;;6.80;4.28;;;;;;;;;;5050723;28;20437;-64
2022/10/17 12:17:32;;;;;;;10.10;4.45;;;;;;;;;;5038443;28;20501;-62
2022/10/17 12:20:20;;;;;;;5.88;3.70;;;;;;;;;;5047249;28;20405;-68
2022/10/17 12:22:54;;;;;;;5.60;4.38;;;;;;;;;;5050317;28;20061;-62
2022/10/17 12:25:22;;;;;;;7.85;4.35;;;;;;;;;;5050520;28;20108;-61
2022/10/17 12:27:49;;;;;;;4.70;3.72;;;;;;;;;;5050381;28;20052;-64
2022/10/17 12:30:26;;;;;;;5.18;3.70;;;;;;;;;;5050350;28;20115;-62
2022/10/17 12:33:20;;;;;;;4.38;3.97;;;;;;;;;;5050253;28;20489;-61
2022/10/17 12:35:46;;;;;;;7.53;4.45;;;;;;;;;;5050520;28;20420;-63
2022/10/17 12:38:19;;;;;;;5.47;3.75;;;;;;;;;;5050223;28;20029;-69
2022/10/17 12:40:46;;;;;;;4.82;3.85;;;;;;;;;;5050092;28;20104;-62
2022/10/17 12:43:14;;;;;;;7.45;4.00;;;;;;;;;;5050715;28;20470;-68
2022/10/17 12:45:56;;;;;;;9.00;4.05;;;;;;;;;;5050425;28;20035;-62
2022/10/17 12:48:37;;;;;;;10.30;4.38;;;;;;;;;;5049088;28;20515;-61
2022/10/17 12:51:12;;;;;;;7.78;4.07;;;;;;;;;;5050078;28;20033;-67
2022/10/17 12:53:56;;;;;;;6.78;3.72;;;;;;;;;;5053622;28;20490;-64
2022/10/17 12:56:33;;;;;;;12.90;4.10;;;;;;;;;;5053759;28;20057;-64
2022/10/17 12:58:59;;;;;;;7.88;4.30;;;;;;;;;;5053796;28;20085;-61
2022/10/17 13:01:30;;;;;;;6.60;4.07;;;;;;;;;;5053743;28;20021;-61
2022/10/17 13:03:57;;;;;;;8.00;3.88;;;;;;;;;;5052539;28;20575;-62
2022/10/17 13:06:36;;;;;;;8.05;4.50;;;;;;;;;;5052291;28;20064;-69
2022/10/17 13:09:25;;;;;;;6.15;3.80;;;;;;;;;;5052693;28;20489;-65
2022/10/17 13:11:50;;;;;;;9.43;4.65;;;;;;;;;;5053809;28;20040;-68
2022/10/17 13:14:19;;;;;;;4.07;3.67;;;;;;;;;;5053844;28;20473;-62
2022/10/17 13:17:03;;;;;;;7.30;4.00;;;;;;;;;;5053882;28;20114;-61
2022/10/17 13:19:40;;;;;;;14.50;4.03;;;;;;;;;;5053424;28;20029;-66
2022/10/17 13:22:15;;;;;;;10.80;4.10;;;;;;;;;;5053352;28;20028;-62
2022/10/17 13:24:40;;;;;;;6.15;3.80;;;;;;;;;;5053834;28;20036;-72
2022/10/17 13:27:38;;;;;;;11.48;3.92;;;;;;;;;;5035453;28;20025;-66
2022/10/17 13:30:21;;;;;;;8.07;3.67;;;;;;;;;;5053468;28;20033;-63
2022/10/17 13:32:46;;;;;;;9.02;3.80;;;;;;;;;;5053323;28;20028;-69
2022/10/17 13:35:18;;;;;;;6.00;3.95;;;;;;;;;;5053294;28;20075;-61
2022/10/17 13:37:45;;;;;;;7.93;4.10;;;;;;;;;;5053481;28;20029;-68
2022/10/17 13:40:19;;;;;;;12.13;4.35;;;;;;;;;;5051839;28;20097;-67
2022/10/17 13:42:46;;;;;;;8.48;4.13;;;;;;;;;;5052004;28;20021;-63
2022/10/17 13:45:36;;;;;;;6.55;3.80;;;;;;;;;;5052979;28;20036;-63
2022/10/17 13:48:05;;;;;;;5.18;3.95;;;;;;;;;;5053191;28;20446;-62
2022/10/17 13:50:35;;;;;;;7.18;4.07;;;;;;;;;;5052678;28;20060;-62
2022/10/17 13:53:18;;;;;;;5.65;4.15;;;;;;;;;;5052963;28;20036;-72
2022/10/17 13:55:59;;;;;;;5.15;4.13;;;;;;;;;;5052569;28;20033;-71
2022/10/17 13:58:26;;;;;;;6.55;4.07;;;;;;;;;;5052794;28;20020;-63
2022/10/17 14:00:52;;;;;;;5.72;3.80;;;;;;;;;;5052632;28;20025;-61
2022/10/17 14:03:21;;;;;;;7.70;4.15;;;;;;;;;;5052435;28;20067;-72
2022/10/17 14:06:04;;;;;;;9.27;3.97;;;;;;;;;;5052721;28;20121;-68
2022/10/17 14:08:32;;;;;;;8.05;3.92;;;;;;;;;;5052585;28;20044;-65
2022/10/17 14:10:58;;;;;;;9.32;4.38;;;;;;;;;;5052545;28;20078;-61
2022/10/17 14:13:26;;;;;;;5.43;3.95;;;;;;;;;;5052287;28;20090;-65
2022/10/17 14:15:54;;;;;;;6.88;3.65;;;;;;;;;;5051097;28;20090;-66
2022/10/17 14:18:24;;;;;;;11.05;3.83;;;;;;;;;;5052561;28;20032;-61
2022/10/17 14:20:51;;;;;;;6.25;4.28;;;;;;;;;;5052426;28;20111;-71
2022/10/17 14:23:29;;;;;;;7.60;4.10;;;;;;;;;;5052976;28;20121;-65
2022/10/17 14:26:23;;;;;;;10.13;4.10;;;;;;;;;;5052534;28;20461;-69
2022/10/17 14:29:03;;;;;;;11.63;4.47;;;;;;;;;;5047120;28;20474;-67
2022/10/17 14:31:32;;;;;;;9.70;4.22;;;;;;;;;;5052458;28;20029;-71
2022/10/17 14:33:59;;;;;;;7.78;3.60;;;;;;;;;;5052174;28;20207;-62
2022/10/17 14:36:41;;;;;;;8.88;4.07;;;;;;;;;;5052291;28;20104;-68
2022/10/17 14:39:19;;;;;;;5.90;4.00;;;;;;;;;;5052264;28;20025;-72
2022/10/17 14:41:46;;;;;;;4.95;3.90;;;;;;;;;;5052568;28;20110;-63
2022/10/17 14:44:20;;;;;;;8.30;4.18;;;;;;;;;;5051812;28;20035;-69
2022/10/17 14:46:48;;;;;;;9.48;4.25;;;;;;;;;;5052010;28;20025;-73
2022/10/17 14:49:20;;;;;;;5.70;3.97;;;;;;;;;;5051580;28;20032;-71
2022/10/17 14:52:16;;;;;;;7.65;4.13;;;;;;;;;;5051870;28;20040;-69
2022/10/17 14:54:46;;;;;;;8.95;4.65;;;;;;;;;;5051887;28;20036;-64
2022/10/17 14:57:25;;;;;;;6.35;4.40;;;;;;;;;;5051471;28;20049;-61
2022/10/17 14:59:51;;;;;;;8.50;4.20;;;;;;;;;;5051422;28;20037;-62
2022/10/17 15:02:17;;;;;;;9.30;4.63;;;;;;;;;;5050275;28;20464;-66
2022/10/17 15:04:42;;;;;;;9.13;4.18;;;;;;;;;;5051686;28;20053;-61